Time;durP1;ratioP1;P1;durP2;ratioP2;P2;SDS_P1;SDS_P2;PMS_P1;PMS_P2;Temp;Humidity;BMP_temperature;BMP_pressure;BME280_temperature;BME280_humidity;BME280_pressure;Samples;Min_cycle;Max_cycle;Signal;HPM_P1;HPM_P2
2023/11/30 00:00:56;;;;;;;5.13;3.10;;;1.60;75.40;;;3.59;56.28;96312.31;5003113;28;20065;-51
2023/11/30 00:03:24;;;;;;;4.83;3.13;;;1.60;75.20;;;3.57;56.22;96307.22;5010912;28;20049;-51
2023/11/30 00:05:51;;;;;;;5.07;3.10;;;1.60;75.60;;;3.60;55.90;96306.09;5010512;28;20077;-52
2023/11/30 00:08:19;;;;;;;4.70;3.57;;;1.70;75.70;;;3.61;56.59;96303.31;5010899;28;20069;-51
2023/11/30 00:10:47;;;;;;;3.93;2.80;;;1.70;75.20;;;3.60;56.25;96306.09;5010710;28;20046;-51
2023/11/30 00:13:14;;;;;;;4.37;3.27;;;1.70;75.00;;;3.57;56.08;96309.00;5009465;28;20045;-53
2023/11/30 00:15:42;;;;;;;4.57;2.73;;;1.70;75.10;;;3.57;56.35;96303.75;5009314;28;20526;-53
2023/11/30 00:18:13;;;;;;;5.73;3.30;;;1.70;75.00;;;3.60;56.04;96298.19;5010574;28;20053;-53
2023/11/30 00:20:41;;;;;;;4.83;3.50;;;1.60;74.80;;;3.59;55.99;96291.25;5009453;28;20407;-49
2023/11/30 00:23:09;;;;;;;3.63;2.90;;;1.60;74.60;;;3.57;55.91;96288.81;5010769;28;20045;-48
2023/11/30 00:25:36;;;;;;;3.87;3.10;;;1.60;74.90;;;3.54;56.00;96279.38;5010144;28;20042;-53
2023/11/30 00:28:04;;;;;;;4.63;3.30;;;1.50;75.50;;;3.53;56.42;96283.00;5009658;28;20073;-52
2023/11/30 00:30:32;;;;;;;5.60;3.40;;;1.50;75.60;;;3.54;56.39;96275.94;5009418;28;20054;-52
2023/11/30 00:32:59;;;;;;;6.53;3.00;;;1.50;75.90;;;3.54;56.33;96283.81;5002899;28;20050;-50
2023/11/30 00:35:27;;;;;;;6.60;2.97;;;1.50;75.50;;;3.50;56.12;96288.56;5010312;28;20050;-49
2023/11/30 00:37:55;;;;;;;6.13;3.53;;;1.50;75.30;;;3.43;56.01;96284.03;5014303;28;20046;-52
2023/11/30 00:40:22;;;;;;;4.07;3.40;;;1.40;75.90;;;3.42;56.11;96274.50;5012696;28;20061;-51
2023/11/30 00:42:50;;;;;;;5.37;3.30;;;1.40;76.00;;;3.38;56.10;96267.91;5012743;28;20045;-52
2023/11/30 00:45:18;;;;;;;4.60;2.57;;;1.40;75.70;;;3.40;56.36;96272.03;5013667;28;20061;-50
2023/11/30 00:47:46;;;;;;;4.43;2.70;;;1.40;75.50;;;3.37;56.34;96264.41;5012669;28;20050;-51
2023/11/30 00:50:13;;;;;;;3.73;3.07;;;1.40;75.30;;;3.33;56.29;96258.66;5012895;28;20046;-52
2023/11/30 00:52:41;;;;;;;5.03;3.10;;;1.40;75.30;;;3.34;56.59;96252.41;5013989;28;20042;-54
2023/11/30 00:55:09;;;;;;;8.60;4.17;;;1.40;75.80;;;3.37;56.20;96253.91;5013820;28;20053;-49
2023/11/30 00:57:36;;;;;;;12.40;6.63;;;1.40;75.10;;;3.36;55.70;96247.00;5012643;28;20534;-52
2023/11/30 01:00:06;;;;;;;30.33;13.17;;;1.40;75.80;;;3.34;56.01;96246.31;5013931;28;20419;-52
2023/11/30 01:02:34;;;;;;;21.23;10.57;;;1.40;74.60;;;3.32;56.00;96250.91;5012763;28;20054;-52
2023/11/30 01:05:03;;;;;;;9.47;5.10;;;1.30;75.10;;;3.26;55.86;96251.50;5012189;28;20053;-52
2023/11/30 01:07:31;;;;;;;6.93;3.60;;;1.30;75.20;;;3.25;56.24;96257.72;5012753;28;20499;-51
2023/11/30 01:09:59;;;;;;;4.83;2.93;;;1.30;75.00;;;3.23;56.09;96251.81;5012385;28;20058;-51
2023/11/30 01:12:27;;;;;;;4.73;2.70;;;1.30;74.80;;;3.25;55.78;96255.09;5012805;28;20042;-53
2023/11/30 01:14:55;;;;;;;3.47;2.03;;;1.30;74.60;;;3.24;55.95;96256.06;5013233;28;20046;-53
2023/11/30 01:17:23;;;;;;;4.13;2.80;;;1.30;74.40;;;3.27;55.79;96263.69;5012687;28;20053;-50
2023/11/30 01:19:50;;;;;;;4.50;3.00;;;1.30;74.10;;;3.32;55.83;96262.25;5012409;28;20503;-50
2023/11/30 01:22:18;;;;;;;3.80;2.47;;;1.30;74.10;;;3.32;55.95;96256.16;5012024;28;20050;-52
2023/11/30 01:24:46;;;;;;;3.83;2.20;;;1.30;74.10;;;3.33;56.26;96261.28;5011685;28;20045;-52
2023/11/30 01:27:15;;;;;;;3.50;2.37;;;1.30;74.20;;;3.34;55.70;96257.66;5012499;28;20213;-52
2023/11/30 01:29:43;;;;;;;4.27;2.73;;;1.40;74.00;;;3.34;55.58;96255.03;5011876;28;20054;-49
2023/11/30 01:32:11;;;;;;;4.43;2.93;;;1.40;73.70;;;3.32;55.58;96249.09;5012379;28;20046;-50
2023/11/30 01:34:39;;;;;;;3.30;2.13;;;1.30;73.90;;;3.30;55.83;96251.06;5012907;28;20042;-53
2023/11/30 01:37:06;;;;;;;4.13;2.30;;;1.30;74.50;;;3.31;56.11;96252.69;5012205;28;20048;-51
2023/11/30 01:39:34;;;;;;;3.23;2.40;;;1.30;74.80;;;3.33;55.44;96248.13;5012990;28;20045;-52
2023/11/30 01:42:01;;;;;;;3.43;2.53;;;1.30;74.80;;;3.28;55.83;96245.13;5009440;28;20052;-51
2023/11/30 01:44:33;;;;;;;6.00;2.67;;;1.20;74.70;;;3.26;55.65;96243.63;5012982;28;20411;-52
2023/11/30 01:47:01;;;;;;;4.10;2.63;;;1.20;74.90;;;3.20;55.78;96242.41;5011677;28;20246;-50
2023/11/30 01:49:29;;;;;;;4.53;2.60;;;1.10;74.90;;;3.23;55.87;96243.91;5012306;28;20435;-52
2023/11/30 01:51:58;;;;;;;3.47;2.13;;;1.20;75.00;;;3.22;55.94;96242.25;5013012;28;20395;-51
2023/11/30 01:54:27;;;;;;;4.87;2.50;;;1.20;74.90;;;3.14;55.44;96245.63;5012014;28;20049;-52
2023/11/30 01:56:55;;;;;;;3.97;2.57;;;1.10;74.80;;;3.15;55.79;96234.13;5012033;28;20500;-49
2023/11/30 01:59:22;;;;;;;4.37;2.80;;;1.20;74.70;;;3.19;56.02;96234.66;4995549;28;20053;-52
2023/11/30 02:01:50;;;;;;;4.07;2.27;;;1.20;74.60;;;3.16;55.94;96238.44;4995236;28;20050;-53
2023/11/30 02:04:21;;;;;;;3.00;2.03;;;1.20;74.30;;;3.21;55.76;96241.41;5012544;28;20518;-52
2023/11/30 02:06:49;;;;;;;4.93;2.80;;;1.20;74.50;;;3.26;55.59;96244.44;5011614;28;20057;-53
2023/11/30 02:09:17;;;;;;;3.07;2.30;;;1.30;74.80;;;3.31;55.69;96242.16;5012354;28;20274;-51
2023/11/30 02:11:45;;;;;;;2.53;2.07;;;1.40;74.80;;;3.34;55.33;96233.16;5011101;28;20056;-51
2023/11/30 02:14:13;;;;;;;3.97;2.90;;;1.40;74.90;;;3.31;55.53;96218.50;5011239;28;20049;-51
2023/11/30 02:16:40;;;;;;;4.20;2.57;;;1.50;74.80;;;3.33;55.80;96216.56;5011304;28;20049;-51
2023/11/30 02:19:08;;;;;;;4.33;2.80;;;1.40;74.90;;;3.34;55.86;96212.94;5011475;28;20038;-52
2023/11/30 02:21:35;;;;;;;4.07;2.87;;;1.40;75.10;;;3.32;55.60;96214.91;5012564;28;20403;-50
2023/11/30 02:24:03;;;;;;;4.53;2.87;;;1.30;75.80;;;3.31;55.84;96218.50;5010894;28;20148;-52
2023/11/30 02:26:31;;;;;;;4.30;3.00;;;1.30;76.40;;;3.31;56.22;96220.31;5012465;28;20042;-51
2023/11/30 02:28:59;;;;;;;4.77;2.70;;;1.20;76.80;;;3.29;55.61;96209.94;4995066;28;20050;-53
2023/11/30 02:31:26;;;;;;;5.83;2.77;;;1.20;77.00;;;3.28;56.38;96212.72;5010916;28;20499;-49
2023/11/30 02:33:55;;;;;;;5.33;3.00;;;1.20;77.00;;;3.22;55.92;96216.78;5010966;28;20042;-50
2023/11/30 02:36:23;;;;;;;7.70;3.60;;;1.10;77.90;;;3.20;56.13;96210.84;5010981;28;20475;-49
2023/11/30 02:38:50;;;;;;;6.13;3.00;;;1.00;78.10;;;3.18;56.09;96206.69;5010976;28;20053;-49
2023/11/30 02:41:18;;;;;;;5.37;3.07;;;1.00;78.30;;;3.14;56.04;96209.66;5012063;28;20419;-52
2023/11/30 02:43:45;;;;;;;5.50;2.90;;;1.00;78.30;;;3.11;56.08;96207.31;5010503;28;20054;-49
2023/11/30 02:46:13;;;;;;;3.97;2.90;;;0.90;78.30;;;3.08;56.06;96193.63;5010567;28;20053;-51
2023/11/30 02:48:41;;;;;;;4.67;3.27;;;0.90;78.40;;;3.04;56.05;96195.72;5010948;28;20057;-52
2023/11/30 02:51:11;;;;;;;6.03;3.47;;;0.90;78.50;;;3.02;56.46;96192.41;5010339;28;20054;-48
2023/11/30 02:53:38;;;;;;;5.30;3.60;;;0.90;78.60;;;2.99;56.42;96200.63;5011811;28;20400;-52
2023/11/30 02:56:07;;;;;;;4.33;2.97;;;0.80;78.40;;;2.94;56.51;96198.41;5011502;28;20053;-54
2023/11/30 02:58:35;;;;;;;5.10;3.20;;;0.70;78.90;;;2.90;56.53;96191.81;5010290;28;20050;-53
2023/11/30 03:01:03;;;;;;;5.17;3.50;;;0.70;79.70;;;2.89;56.52;96192.81;5009467;28;20042;-53
2023/11/30 03:03:31;;;;;;;6.10;3.33;;;0.70;80.50;;;2.86;56.95;96194.91;5011781;28;20070;-54
2023/11/30 03:05:59;;;;;;;4.73;3.20;;;0.60;80.20;;;2.81;56.86;96191.88;5011264;28;20037;-52
2023/11/30 03:08:27;;;;;;;5.93;2.97;;;0.50;81.00;;;2.80;56.85;96195.50;5010099;28;20056;-52
2023/11/30 03:10:55;;;;;;;5.53;2.97;;;0.50;81.10;;;2.79;57.00;96192.03;5011362;28;20042;-50
2023/11/30 03:13:22;;;;;;;4.80;2.83;;;0.60;80.90;;;2.75;56.96;96188.88;5010661;28;20057;-49
2023/11/30 03:15:50;;;;;;;4.40;3.03;;;0.50;81.00;;;2.74;56.93;96184.59;5010936;28;20411;-53
2023/11/30 03:18:17;;;;;;;5.40;3.10;;;0.50;80.80;;;2.73;57.03;96182.97;5011519;28;20039;-51
2023/11/30 03:20:45;;;;;;;3.97;3.27;;;0.40;80.40;;;2.71;56.94;96182.25;5011198;28;20054;-50
2023/11/30 03:23:13;;;;;;;5.73;3.17;;;0.50;80.30;;;2.70;57.10;96187.69;5010267;28;20057;-53
2023/11/30 03:25:41;;;;;;;4.43;2.90;;;0.50;80.50;;;2.66;57.00;96179.25;5011154;28;20045;-54
2023/11/30 03:28:08;;;;;;;3.87;2.53;;;0.50;80.50;;;2.64;57.21;96164.63;5011216;28;20304;-50
2023/11/30 03:30:36;;;;;;;4.43;3.17;;;0.40;80.40;;;2.65;57.39;96155.75;5010901;28;20495;-50
2023/11/30 03:33:04;;;;;;;5.20;3.07;;;0.50;80.10;;;2.68;57.30;96145.78;5011019;28;20046;-51
2023/11/30 03:35:33;;;;;;;5.73;3.10;;;0.50;79.90;;;2.69;57.08;96144.78;5010763;28;20030;-53
2023/11/30 03:38:00;;;;;;;6.27;3.20;;;0.60;79.80;;;2.77;57.26;96141.41;5010994;28;20114;-53
2023/11/30 03:40:28;;;;;;;5.10;3.00;;;0.70;79.50;;;2.80;57.35;96141.13;5009898;28;20121;-50
2023/11/30 03:42:55;;;;;;;4.50;3.10;;;0.70;79.00;;;2.81;57.15;96136.69;5009910;28;20050;-51
2023/11/30 03:45:23;;;;;;;4.50;2.90;;;0.70;78.20;;;2.78;56.99;96139.63;5011000;28;20523;-49
2023/11/30 03:47:51;;;;;;;4.90;3.20;;;0.70;78.60;;;2.74;57.29;96137.28;5009514;28;20053;-51
2023/11/30 03:50:19;;;;;;;4.60;3.17;;;0.60;78.80;;;2.71;57.27;96134.13;5009906;28;20046;-50
2023/11/30 03:52:47;;;;;;;4.63;3.10;;;0.60;79.10;;;2.73;57.57;96132.16;5010122;28;20045;-52
2023/11/30 03:55:14;;;;;;;6.40;3.03;;;0.60;79.20;;;2.70;57.51;96122.78;5009688;28;20053;-52
2023/11/30 03:57:42;;;;;;;4.50;2.80;;;0.60;79.30;;;2.73;57.28;96121.66;5009974;28;20435;-51
2023/11/30 04:00:14;;;;;;;4.77;3.20;;;0.60;79.70;;;2.78;57.49;96118.59;5010602;28;20054;-51
2023/11/30 04:02:42;;;;;;;6.80;3.60;;;0.70;79.50;;;2.79;57.33;96118.44;5010000;28;20045;-50
2023/11/30 04:05:11;;;;;;;5.63;3.27;;;0.70;79.00;;;2.81;57.12;96113.03;5010409;28;20046;-52
2023/11/30 04:07:39;;;;;;;4.57;3.30;;;0.70;78.70;;;2.83;57.31;96109.28;5010291;28;20049;-53
2023/11/30 04:10:09;;;;;;;4.67;3.40;;;0.80;78.50;;;2.83;57.25;96113.69;5009222;28;20064;-52
2023/11/30 04:12:37;;;;;;;5.33;3.63;;;0.70;79.00;;;2.83;57.01;96093.53;5013949;28;20042;-52
2023/11/30 04:15:05;;;;;;;5.97;3.63;;;0.70;79.00;;;2.85;57.56;96099.44;5013541;28;20423;-54
2023/11/30 04:17:34;;;;;;;5.83;3.80;;;0.80;78.80;;;2.86;57.37;96098.47;5013761;28;20046;-52
2023/11/30 04:20:03;;;;;;;5.63;3.40;;;0.80;78.50;;;2.87;57.43;96096.66;5014525;28;20041;-54
2023/11/30 04:22:31;;;;;;;5.80;3.70;;;0.90;79.10;;;2.91;57.47;96087.50;5013632;28;20053;-52
2023/11/30 04:24:58;;;;;;;9.80;3.87;;;0.90;78.60;;;2.98;57.23;96079.81;5014253;28;20054;-52
2023/11/30 04:27:26;;;;;;;6.97;3.53;;;1.10;78.40;;;3.04;57.06;96085.28;5012430;28;20048;-49
2023/11/30 04:29:54;;;;;;;5.60;3.70;;;1.10;78.10;;;3.08;57.49;96086.66;5014414;28;20042;-54
2023/11/30 04:32:22;;;;;;;7.57;4.20;;;1.10;77.50;;;3.09;57.48;96085.66;5006793;28;20050;-53
2023/11/30 04:34:50;;;;;;;8.33;4.33;;;1.10;77.90;;;3.09;57.23;96079.59;5021085;28;20052;-55
2023/11/30 04:37:17;;;;;;;6.57;4.37;;;1.10;78.00;;;3.12;57.19;96084.53;5013211;28;20049;-51
2023/11/30 04:39:45;;;;;;;5.83;4.17;;;1.20;77.70;;;3.11;57.32;96078.44;5014187;28;20046;-50
2023/11/30 04:42:13;;;;;;;6.60;4.47;;;1.20;77.90;;;3.13;57.51;96073.03;5011175;28;20038;-51
2023/11/30 04:44:40;;;;;;;9.63;5.30;;;1.30;77.40;;;3.12;57.19;96076.63;5013210;28;20045;-55
2023/11/30 04:47:08;;;;;;;6.87;4.80;;;1.30;76.90;;;3.11;57.35;96080.25;5013193;28;20434;-54
2023/11/30 04:49:36;;;;;;;6.50;4.13;;;1.20;77.20;;;3.09;57.20;96077.78;4997035;28;20125;-53
2023/11/30 04:52:04;;;;;;;6.60;4.43;;;1.10;77.30;;;3.06;57.32;96083.34;5012868;28;20050;-51
2023/11/30 04:54:31;;;;;;;7.43;5.07;;;1.10;77.40;;;3.03;57.08;96078.41;5012441;28;20049;-57
2023/11/30 04:57:00;;;;;;;8.30;4.73;;;1.10;77.60;;;3.03;57.15;96075.78;5011953;28;20050;-51
2023/11/30 04:59:27;;;;;;;6.90;4.93;;;1.10;77.60;;;3.04;57.08;96071.31;5013720;28;20045;-52
2023/11/30 05:01:55;;;;;;;7.57;4.47;;;1.20;77.50;;;3.02;57.25;96063.59;5014289;28;20046;-54
2023/11/30 05:04:23;;;;;;;7.53;5.40;;;1.20;77.00;;;3.00;57.18;96062.91;5013599;28;20042;-53
2023/11/30 05:06:50;;;;;;;7.73;5.20;;;1.10;77.10;;;3.00;57.14;96056.84;5013645;28;20054;-49
2023/11/30 05:09:18;;;;;;;11.00;5.60;;;1.20;76.80;;;2.97;57.01;96065.88;5013506;28;20065;-49
2023/11/30 05:11:46;;;;;;;12.80;7.50;;;1.20;77.00;;;2.98;57.23;96069.31;5013482;28;20511;-54
2023/11/30 05:14:13;;;;;;;12.43;7.57;;;1.20;76.90;;;3.02;57.37;96074.09;5013114;28;20463;-54
2023/11/30 05:16:41;;;;;;;16.07;8.10;;;1.20;76.70;;;3.05;57.42;96076.44;5013444;28;20038;-51
2023/11/30 05:19:08;;;;;;;11.73;7.50;;;1.20;76.50;;;3.06;57.38;96075.44;5013560;28;20045;-51
2023/11/30 05:21:36;;;;;;;24.50;11.53;;;1.30;76.80;;;3.05;57.25;96073.81;5013490;28;20439;-51
2023/11/30 05:24:04;;;;;;;35.80;14.67;;;1.30;76.40;;;3.08;57.38;96064.78;5012318;28;20101;-50
2023/11/30 05:26:31;;;;;;;63.83;23.63;;;1.30;76.40;;;3.09;57.31;96075.16;5013440;28;20029;-53
2023/11/30 05:28:59;;;;;;;183.23;66.60;;;1.40;76.00;;;3.09;57.46;96064.63;5013238;28;20057;-50
2023/11/30 05:31:27;;;;;;;33.87;18.50;;;1.40;76.10;;;3.11;57.12;96070.56;5005161;28;20415;-51
2023/11/30 05:33:54;;;;;;;13.40;9.63;;;1.30;76.10;;;3.14;57.20;96075.53;5011884;28;20038;-49
2023/11/30 05:36:22;;;;;;;11.80;7.07;;;1.30;77.00;;;3.14;57.04;96078.16;5011540;28;20038;-52
2023/11/30 05:38:50;;;;;;;9.63;6.43;;;1.20;76.50;;;3.14;57.03;96079.94;5011809;28;20037;-52
2023/11/30 05:41:18;;;;;;;10.43;7.83;;;1.10;76.40;;;3.12;57.17;96079.28;5012594;28;20455;-52
2023/11/30 05:43:45;;;;;;;10.57;6.70;;;1.10;77.20;;;3.11;57.20;96069.75;4995597;28;20046;-50
2023/11/30 05:46:13;;;;;;;12.53;7.53;;;1.10;77.00;;;3.10;56.97;96076.81;5012368;28;20050;-53
2023/11/30 05:48:41;;;;;;;9.73;6.73;;;1.00;77.20;;;3.10;57.03;96073.34;5012026;28;20042;-50
2023/11/30 05:51:09;;;;;;;12.23;7.20;;;1.00;77.40;;;3.07;56.83;96063.97;5012564;28;20434;-53
2023/11/30 05:53:37;;;;;;;10.90;7.50;;;1.00;78.10;;;3.05;56.97;96065.09;5012739;28;20042;-52
2023/11/30 05:56:05;;;;;;;11.17;6.97;;;1.00;78.00;;;3.05;57.19;96062.47;5012158;28;20049;-52
2023/11/30 05:58:32;;;;;;;11.67;7.70;;;1.00;78.00;;;3.05;57.13;96058.03;5012766;28;20045;-52
2023/11/30 06:01:00;;;;;;;11.70;7.97;;;1.00;77.80;;;3.06;56.95;96048.34;5012591;28;20042;-49
2023/11/30 06:03:28;;;;;;;17.17;10.00;;;1.00;77.70;;;3.06;57.51;96048.34;5012900;28;20423;-50
2023/11/30 06:05:56;;;;;;;31.10;14.30;;;1.10;77.30;;;3.05;57.07;96044.06;5012367;28;20053;-50
2023/11/30 06:08:27;;;;;;;26.13;14.33;;;1.00;77.90;;;3.05;57.14;96037.00;5012643;28;20057;-49
2023/11/30 06:10:54;;;;;;;15.03;9.30;;;1.00;77.80;;;3.07;56.93;96039.47;5012410;28;20496;-49
2023/11/30 06:13:26;;;;;;;14.83;8.13;;;1.10;78.00;;;3.05;56.69;96036.19;5012252;28;20511;-52
2023/11/30 06:15:54;;;;;;;13.07;8.27;;;1.10;77.90;;;3.03;57.29;96028.44;5012274;28;20049;-52
2023/11/30 06:18:23;;;;;;;13.57;8.43;;;1.20;77.30;;;3.08;57.16;96035.84;5010863;28;20423;-50
2023/11/30 06:20:50;;;;;;;18.57;8.50;;;1.20;77.20;;;3.11;57.53;96032.94;5010783;28;20049;-49
2023/11/30 06:23:22;;;;;;;14.73;9.30;;;1.20;77.20;;;3.14;56.97;96038.72;5012546;28;20049;-55
2023/11/30 06:26:14;;;;;;;21.40;12.53;;;1.20;77.10;;;3.19;56.90;96026.91;5009892;28;20053;-58
2023/11/30 06:28:42;;;;;;;29.83;17.97;;;1.30;77.00;;;3.19;57.49;96051.38;5012341;28;20456;-56
2023/11/30 06:31:09;;;;;;;32.37;17.27;;;1.20;76.80;;;3.19;57.00;96047.94;5010632;28;20046;-56
2023/11/30 06:33:37;;;;;;;76.10;32.13;;;1.20;77.40;;;3.21;56.80;96041.53;5011564;28;20041;-56
2023/11/30 06:36:05;;;;;;;95.03;40.33;;;1.20;77.40;;;3.20;57.28;96044.31;5012013;28;20049;-52
2023/11/30 06:38:33;;;;;;;68.17;29.47;;;1.10;78.00;;;3.21;56.95;96027.56;5011965;28;20045;-53
2023/11/30 06:41:01;;;;;;;25.90;13.07;;;1.10;77.90;;;3.21;57.12;96012.59;5012069;28;20045;-57
2023/11/30 06:43:28;;;;;;;24.93;14.20;;;1.10;78.20;;;3.23;56.96;96004.56;5011717;28;20042;-55
2023/11/30 06:45:56;;;;;;;15.07;8.20;;;1.10;78.10;;;3.26;57.12;96004.28;5011729;28;20046;-56
2023/11/30 06:48:25;;;;;;;11.27;6.93;;;1.20;77.60;;;3.20;56.50;96004.88;5010943;28;20101;-57
2023/11/30 06:50:53;;;;;;;8.57;6.40;;;1.10;78.30;;;3.16;56.72;96014.91;5011713;28;20507;-56
2023/11/30 06:53:20;;;;;;;9.50;6.40;;;1.10;79.60;;;3.13;57.01;96007.31;5011506;28;20094;-58
2023/11/30 06:55:48;;;;;;;10.20;6.60;;;1.20;78.50;;;3.11;57.47;96009.25;5011436;28;20045;-57
2023/11/30 06:58:15;;;;;;;10.37;7.10;;;1.20;78.60;;;3.13;57.43;96017.81;5011441;28;20495;-50
2023/11/30 07:00:44;;;;;;;10.27;7.63;;;1.10;78.80;;;3.12;56.88;96030.16;5010149;28;20056;-48
2023/11/30 07:03:12;;;;;;;10.23;6.50;;;1.00;79.50;;;3.13;57.05;96031.78;5011325;28;20491;-51
2023/11/30 07:05:40;;;;;;;9.53;6.63;;;1.00;79.40;;;3.14;57.76;96017.69;5011399;28;20049;-49
2023/11/30 07:08:08;;;;;;;9.50;6.93;;;1.00;79.30;;;3.14;57.23;96008.94;5011519;28;20065;-51
2023/11/30 07:10:36;;;;;;;11.53;7.17;;;1.00;79.90;;;3.14;57.28;96004.53;5011521;28;20497;-50
2023/11/30 07:13:03;;;;;;;9.60;6.10;;;1.00;80.00;;;3.20;57.33;96012.75;5007229;28;20052;-53
2023/11/30 07:15:31;;;;;;;8.20;5.77;;;1.10;80.10;;;3.19;57.29;96009.31;5011060;28;20048;-51
2023/11/30 07:17:59;;;;;;;11.53;6.23;;;1.10;79.60;;;3.21;57.23;96003.91;5011469;28;20052;-50
2023/11/30 07:20:26;;;;;;;12.13;6.83;;;1.10;79.70;;;3.21;57.13;96007.34;5010972;28;20062;-52
2023/11/30 07:22:54;;;;;;;8.40;5.80;;;1.10;80.10;;;3.22;57.35;96010.78;5011254;28;20046;-51
2023/11/30 07:25:22;;;;;;;12.00;7.27;;;1.20;79.70;;;3.24;57.49;96019.34;5010767;28;20530;-52
2023/11/30 07:27:53;;;;;;;15.13;7.37;;;1.20;79.70;;;3.22;57.24;96027.41;5011163;28;20050;-50
2023/11/30 07:30:21;;;;;;;11.83;6.37;;;1.10;79.80;;;3.21;57.05;96015.25;5011129;28;20050;-50
2023/11/30 07:32:49;;;;;;;9.87;5.90;;;1.10;79.80;;;3.20;57.41;96010.13;5011243;28;20042;-50
2023/11/30 07:35:16;;;;;;;12.10;6.37;;;1.00;79.90;;;3.19;57.38;96016.38;5010825;28;20046;-52
2023/11/30 07:37:44;;;;;;;10.77;9.20;;;1.00;80.50;;;3.16;57.47;96014.91;5011338;28;20379;-52
2023/11/30 07:40:12;;;;;;;11.50;7.40;;;1.00;81.00;;;3.17;57.44;96013.91;5010939;28;20038;-53
2023/11/30 07:42:39;;;;;;;10.07;6.80;;;1.00;80.80;;;3.18;57.72;96019.97;5008229;28;20049;-53
2023/11/30 07:45:09;;;;;;;8.80;5.97;;;1.10;81.20;;;3.21;57.79;96031.03;5009788;28;20049;-52
2023/11/30 07:47:36;;;;;;;9.80;6.77;;;1.10;80.30;;;3.20;57.48;96018.00;5010622;28;20049;-50
2023/11/30 07:50:05;;;;;;;14.23;7.93;;;1.10;80.50;;;3.22;58.10;96016.91;5011073;28;20100;-51
2023/11/30 07:52:35;;;;;;;9.77;6.77;;;1.10;80.00;;;3.26;57.59;96009.53;5009306;28;20042;-55
2023/11/30 07:55:03;;;;;;;17.43;10.20;;;1.20;79.80;;;3.30;57.54;96006.41;5010451;28;20538;-55
2023/11/30 07:57:32;;;;;;;15.60;9.67;;;1.20;78.70;;;3.34;57.56;96012.19;5011019;28;20423;-54
2023/11/30 08:00:02;;;;;;;17.27;9.97;;;1.30;78.80;;;3.36;57.20;96012.88;5011092;28;20045;-54
2023/11/30 08:02:30;;;;;;;14.60;10.20;;;1.40;78.60;;;3.39;57.68;96004.66;5010995;28;20053;-50
2023/11/30 08:04:58;;;;;;;11.20;7.43;;;1.40;78.30;;;3.44;57.61;95999.75;5010788;28;20459;-54
2023/11/30 08:07:26;;;;;;;10.00;7.43;;;1.40;78.30;;;3.46;57.53;95996.97;5010463;28;20052;-52
2023/11/30 08:09:53;;;;;;;8.23;7.17;;;1.40;78.10;;;3.46;57.44;95991.72;5010497;28;20041;-52
2023/11/30 08:12:21;;;;;;;13.03;7.77;;;1.40;77.80;;;3.48;57.62;95987.09;5010758;28;20372;-52
2023/11/30 08:14:48;;;;;;;6.57;5.30;;;1.40;77.30;;;3.48;57.41;95984.47;5010393;28;20034;-53
2023/11/30 08:17:16;;;;;;;7.33;5.37;;;1.40;77.40;;;3.49;56.85;95994.00;5010766;28;20041;-50
2023/11/30 08:19:44;;;;;;;7.97;5.90;;;1.40;77.30;;;3.49;57.21;96001.91;5003078;28;20073;-52
2023/11/30 08:22:12;;;;;;;10.00;5.73;;;1.40;77.10;;;3.51;57.37;96002.59;5011070;28;20068;-54
2023/11/30 08:24:50;;;;;;;11.93;6.07;;;1.50;77.30;;;3.50;57.12;95987.78;5010371;28;20053;-52
2023/11/30 08:27:22;;;;;;;10.57;6.27;;;1.50;76.80;;;3.49;57.31;95981.69;5009591;28;20046;-54
2023/11/30 08:29:50;;;;;;;10.13;6.20;;;1.50;76.90;;;3.51;57.28;95994.69;5010738;28;20046;-53
2023/11/30 08:32:18;;;;;;;8.93;5.90;;;1.50;77.60;;;3.52;57.30;95984.00;5009590;28;20068;-51
2023/11/30 08:34:46;;;;;;;8.47;6.50;;;1.50;77.30;;;3.54;57.34;95978.56;5010170;28;20495;-51
2023/11/30 08:37:13;;;;;;;7.60;5.97;;;1.60;77.20;;;3.55;57.07;95981.06;5010813;28;20049;-51
2023/11/30 08:39:42;;;;;;;10.90;7.03;;;1.50;77.10;;;3.59;57.05;95989.47;5010479;28;20068;-51
2023/11/30 08:42:11;;;;;;;8.10;6.37;;;1.50;77.40;;;3.62;56.94;95985.69;5010505;28;20042;-54
2023/11/30 08:44:40;;;;;;;11.00;6.83;;;1.60;77.30;;;3.65;57.02;95980.94;5009999;28;20069;-54
2023/11/30 08:47:08;;;;;;;9.10;6.57;;;1.60;76.90;;;3.66;57.18;95985.19;5011353;28;20095;-53
2023/11/30 08:49:35;;;;;;;11.63;5.93;;;1.60;76.70;;;3.67;56.92;95978.97;5008378;28;20400;-54
2023/11/30 08:52:03;;;;;;;9.90;6.60;;;1.70;76.40;;;3.67;56.38;95980.78;5010138;28;20364;-50
2023/11/30 08:54:31;;;;;;;10.30;7.17;;;1.70;76.70;;;3.66;56.89;95982.56;5009869;28;20102;-52
2023/11/30 08:56:58;;;;;;;9.57;6.57;;;1.80;76.60;;;3.66;57.23;95974.66;5010483;28;20050;-50
2023/11/30 08:59:26;;;;;;;11.17;6.33;;;1.70;76.30;;;3.65;57.25;95973.03;5011773;28;20050;-52
2023/11/30 09:01:54;;;;;;;9.37;6.27;;;1.70;76.80;;;3.64;57.25;95970.56;5013864;28;20042;-54
2023/11/30 09:04:22;;;;;;;10.33;7.27;;;1.70;76.50;;;3.63;57.18;95975.00;5013527;28;20050;-52
2023/11/30 09:06:50;;;;;;;10.23;6.80;;;1.70;77.00;;;3.64;56.94;95970.56;5013142;28;20045;-52
2023/11/30 09:09:18;;;;;;;10.07;6.50;;;1.70;76.40;;;3.67;56.77;95972.88;5013533;28;20053;-51
2023/11/30 09:11:46;;;;;;;8.47;6.37;;;1.70;76.60;;;3.69;56.84;95968.28;5013825;28;20053;-54
2023/11/30 09:14:13;;;;;;;9.77;6.17;;;1.70;76.70;;;3.73;56.79;95967.78;5013503;28;20522;-51
2023/11/30 09:16:42;;;;;;;8.60;6.20;;;1.70;76.40;;;3.78;56.71;95967.34;5013823;28;20042;-52
2023/11/30 09:19:10;;;;;;;11.70;7.47;;;1.80;76.20;;;3.83;57.30;95966.84;5013705;28;20050;-55
2023/11/30 09:21:38;;;;;;;15.47;7.70;;;1.90;76.10;;;3.86;56.71;95975.25;5012868;28;20046;-52
2023/11/30 09:24:06;;;;;;;10.90;7.43;;;1.90;75.90;;;3.89;57.02;95967.00;5012111;28;20049;-52
2023/11/30 09:26:34;;;;;;;11.90;7.03;;;2.00;75.80;;;3.93;56.46;95978.88;5012378;28;20056;-55
2023/11/30 09:29:02;;;;;;;14.17;8.30;;;2.00;75.80;;;3.97;56.53;95982.00;5012561;28;20053;-52
2023/11/30 09:31:30;;;;;;;12.03;7.40;;;2.00;75.10;;;4.02;56.73;95984.19;5013057;28;20518;-52
2023/11/30 09:33:58;;;;;;;10.80;6.80;;;2.10;75.50;;;4.05;56.94;95989.94;5013334;28;20050;-54
2023/11/30 09:36:26;;;;;;;11.57;7.33;;;2.10;75.80;;;4.08;56.74;95984.34;5012996;28;20049;-53
2023/11/30 09:38:54;;;;;;;12.00;8.50;;;2.20;76.10;;;4.12;57.06;95982.22;5013480;28;20442;-55
2023/11/30 09:41:23;;;;;;;15.57;8.33;;;2.30;76.70;;;4.11;57.10;95970.88;5013180;28;20053;-51
2023/11/30 09:43:51;;;;;;;12.43;8.87;;;2.30;77.40;;;4.13;56.88;95962.81;5012198;28;20057;-52
2023/11/30 09:46:19;;;;;;;16.97;9.80;;;2.30;77.70;;;4.15;56.70;95960.84;4995683;28;20065;-51
2023/11/30 09:48:47;;;;;;;14.30;7.80;;;2.30;77.60;;;4.18;57.45;95967.56;5012308;28;20463;-54
2023/11/30 09:51:20;;;;;;;11.77;7.63;;;2.30;78.20;;;4.20;57.79;95966.41;5012964;28;20554;-50
2023/11/30 09:53:49;;;;;;;11.80;8.43;;;2.30;78.70;;;4.22;57.00;95968.91;5012756;28;20045;-50
2023/11/30 09:56:16;;;;;;;12.13;8.10;;;2.30;78.60;;;4.23;57.17;95965.28;5012810;28;20041;-50
2023/11/30 09:58:44;;;;;;;16.50;9.13;;;2.30;78.70;;;4.24;57.30;95962.47;5012815;28;20057;-49
2023/11/30 10:01:12;;;;;;;14.17;9.00;;;2.30;78.70;;;4.28;57.94;95963.78;5013026;28;20077;-51
2023/11/30 10:03:40;;;;;;;14.10;9.13;;;2.30;78.80;;;4.32;57.65;95962.50;5012679;28;20052;-51
2023/11/30 10:06:08;;;;;;;15.83;9.30;;;2.40;78.70;;;4.37;57.46;95955.91;5012620;28;20061;-53
2023/11/30 10:08:36;;;;;;;12.07;7.67;;;2.40;79.00;;;4.40;57.23;95951.16;5012159;28;20038;-54
2023/11/30 10:11:04;;;;;;;11.33;7.23;;;2.40;78.40;;;4.43;57.22;95940.25;5012619;28;20061;-52
2023/11/30 10:13:31;;;;;;;12.43;7.83;;;2.40;78.10;;;4.45;57.01;95937.47;5012345;28;20053;-53
2023/11/30 10:15:59;;;;;;;14.90;8.17;;;2.50;78.10;;;4.50;57.45;95932.53;5012482;28;20049;-51
2023/11/30 10:18:30;;;;;;;11.80;8.20;;;2.50;78.10;;;4.53;57.08;95927.72;5012291;28;20522;-51
2023/11/30 10:20:57;;;;;;;31.63;9.20;;;2.60;77.70;;;4.57;57.81;95919.50;5012386;28;20046;-49
2023/11/30 10:23:25;;;;;;;13.77;8.70;;;2.60;77.80;;;4.60;57.83;95906.81;5012382;28;20507;-53
2023/11/30 10:25:55;;;;;;;12.97;7.97;;;2.70;77.70;;;4.68;57.01;95924.44;5011887;28;20038;-51
2023/11/30 10:28:23;;;;;;;13.97;8.00;;;2.80;77.30;;;4.71;57.69;95917.03;5011142;28;20038;-51
2023/11/30 10:30:53;;;;;;;12.60;8.40;;;2.80;76.80;;;4.76;57.42;95915.72;5011226;28;20038;-52
2023/11/30 10:33:24;;;;;;;12.63;8.67;;;2.80;76.60;;;4.81;57.51;95921.28;5012292;28;20042;-51